Grand Narrows, Canada
Current Conditions -  °F | °C
As of 4:00 PM on Friday 31 Oct 2014 (Local Time) from CYPD Reporting Station
Clear Clear  
Wind Chill: 45°   Ceiling: Unl
Heat Index: 48°   Visibility: 9mi
Dew Point: 32°   Wind: 8mph
Humidity: 54%   Direction: 280°W
Pressure: 30.07"   Gusts: NA
Location:  45.95°N, 60.78°W
Report Text: CYPD 311900Z AUTO 28007KT 9SM CLR 09/00 A3007 RMK SLP185
Loading
Personal Weather Stations






























Interactive Weather Map
Tropical Storm Tracking
New forecast layout! Learn more

10-Day Weather Forecast

Advertisements
Track Severe Weather on mobile